Time;durP1;ratioP1;P1;durP2;ratioP2;P2;SDS_P1;SDS_P2;PMS_P1;PMS_P2;Temp;Humidity;BMP_temperature;BMP_pressure;BME280_temperature;BME280_humidity;BME280_pressure;Samples;Min_cycle;Max_cycle;Signal;HPM_P1;HPM_P2
2022/01/03 00:02:23;;;;;;;13.80;3.30;;;11.90;80.10;;;;;;4976003;28;20038;-78
2022/01/03 00:04:49;;;;;;;12.45;2.67;;;11.90;80.20;;;;;;4973874;28;20054;-79
2022/01/03 00:07:16;;;;;;;11.45;2.65;;;11.90;80.20;;;;;;4968186;28;20394;-79
2022/01/03 00:09:42;;;;;;;9.23;2.30;;;11.90;80.20;;;;;;4972314;28;20089;-80
2022/01/03 00:12:08;;;;;;;8.55;2.22;;;11.90;80.30;;;;;;4969836;28;20027;-79
2022/01/03 00:17:09;;;;;;;11.63;2.65;;;11.90;80.00;;;;;;5014770;22;20447;-80
2022/01/03 00:19:34;;;;;;;8.45;2.20;;;11.80;79.90;;;;;;5004908;28;20021;-79
2022/01/03 00:22:05;;;;;;;9.23;2.17;;;11.90;80.00;;;;;;5008214;28;20035;-79
2022/01/03 00:24:35;;;;;;;10.13;2.10;;;11.90;79.90;;;;;;5012284;28;20029;-79
2022/01/03 00:27:04;;;;;;;12.30;3.00;;;11.90;79.90;;;;;;4991466;28;20023;-79
2022/01/03 00:29:44;;;;;;;11.48;2.80;;;11.90;79.80;;;;;;4987111;28;20034;-80
2022/01/03 00:32:13;;;;;;;16.38;3.38;;;11.90;79.80;;;;;;4989140;28;20073;-80
2022/01/03 00:34:39;;;;;;;9.45;2.55;;;11.90;80.30;;;;;;4992845;28;20480;-81
2022/01/03 00:37:07;;;;;;;13.43;2.55;;;12.00;79.80;;;;;;4985319;28;20111;-81
2022/01/03 00:39:32;;;;;;;12.13;2.60;;;12.00;79.80;;;;;;4987711;28;20082;-81
2022/01/03 00:41:58;;;;;;;14.93;3.13;;;11.90;79.80;;;;;;4991545;28;20567;-82
2022/01/03 00:44:25;;;;;;;11.85;2.72;;;12.00;79.80;;;;;;4987949;28;20350;-81
2022/01/03 00:46:54;;;;;;;12.10;2.55;;;11.90;79.90;;;;;;4987866;28;20026;-81
2022/01/03 00:49:20;;;;;;;15.77;3.80;;;11.90;79.90;;;;;;4995863;28;20034;-81
2022/01/03 00:51:46;;;;;;;15.90;3.10;;;12.00;79.90;;;;;;4997654;28;20057;-81
2022/01/03 00:54:12;;;;;;;16.63;3.13;;;12.00;80.00;;;;;;4993644;28;20030;-81
2022/01/03 00:56:43;;;;;;;11.93;2.80;;;12.00;80.00;;;;;;4990686;28;20503;-81
2022/01/03 00:59:15;;;;;;;9.60;2.53;;;12.00;79.90;;;;;;4989867;28;20148;-81
2022/01/03 01:01:49;;;;;;;15.25;2.90;;;12.00;79.90;;;;;;4990831;28;20030;-80
2022/01/03 01:04:16;;;;;;;16.25;3.55;;;11.90;79.80;;;;;;4990713;28;20035;-81
2022/01/03 01:06:42;;;;;;;10.68;2.67;;;11.90;79.90;;;;;;4986378;28;20037;-81
2022/01/03 01:09:12;;;;;;;20.20;3.80;;;11.90;79.90;;;;;;4999064;28;20042;-81
2022/01/03 01:11:42;;;;;;;19.08;3.90;;;11.90;79.80;;;;;;4995129;28;20547;-82
2022/01/03 01:14:07;;;;;;;12.98;2.88;;;11.90;79.90;;;;;;4998045;28;20062;-81
2022/01/03 01:16:34;;;;;;;10.90;3.10;;;11.90;79.80;;;;;;4990230;28;20817;-82
2022/01/03 01:19:00;;;;;;;10.25;2.42;;;11.90;80.00;;;;;;4983656;28;20076;-82
2022/01/03 01:21:26;;;;;;;17.55;3.20;;;11.90;80.00;;;;;;4998519;28;20026;-82
2022/01/03 01:23:53;;;;;;;15.80;3.75;;;11.90;80.00;;;;;;4999589;28;20022;-81
2022/01/03 01:29:04;;;;;;;14.80;3.25;;;11.90;80.10;;;;;;4999532;28;20061;-80
2022/01/03 01:31:34;;;;;;;14.75;3.00;;;11.90;80.10;;;;;;4998662;28;20106;-80
2022/01/03 01:34:03;;;;;;;14.32;3.00;;;11.90;80.10;;;;;;4999754;28;21008;-80
2022/01/03 01:36:29;;;;;;;13.75;3.17;;;11.90;80.10;;;;;;4998482;28;20077;-81
2022/01/03 01:39:02;;;;;;;14.02;2.75;;;11.90;79.90;;;;;;4999182;28;20015;-80
2022/01/03 01:41:29;;;;;;;14.93;3.63;;;11.90;79.90;;;;;;4993152;28;20037;-80
2022/01/03 01:43:59;;;;;;;20.67;3.47;;;11.90;79.80;;;;;;4994285;28;20023;-80
2022/01/03 01:46:25;;;;;;;17.30;3.92;;;11.90;80.20;;;;;;4987856;28;20034;-80
2022/01/03 01:48:52;;;;;;;16.77;3.20;;;11.90;79.40;;;;;;4992588;28;20045;-81
2022/01/03 01:51:20;;;;;;;14.73;3.35;;;11.80;79.40;;;;;;4993098;28;20489;-81
2022/01/03 01:53:48;;;;;;;14.55;3.20;;;11.80;79.40;;;;;;4999079;28;20061;-81
2022/01/03 01:56:25;;;;;;;13.45;2.67;;;11.80;79.50;;;;;;4998560;28;20120;-81
2022/01/03 01:59:10;;;;;;;15.05;3.80;;;11.80;79.50;;;;;;4992705;28;20817;-81
2022/01/03 02:01:44;;;;;;;17.88;3.47;;;11.80;79.40;;;;;;4992815;28;20065;-82
2022/01/03 02:04:23;;;;;;;14.70;3.40;;;11.80;79.40;;;;;;4997521;28;20034;-82
2022/01/03 02:06:49;;;;;;;17.40;3.50;;;11.80;79.50;;;;;;4994890;28;20113;-82
2022/01/03 02:09:42;;;;;;;19.45;3.15;;;11.80;79.60;;;;;;5004055;28;20042;-83
2022/01/03 02:12:14;;;;;;;13.80;2.92;;;11.80;79.60;;;;;;4992268;28;20652;-81
2022/01/03 02:14:40;;;;;;;13.07;2.95;;;11.80;79.60;;;;;;4997061;28;20019;-82
2022/01/03 02:17:06;;;;;;;15.95;3.50;;;11.80;79.60;;;;;;4988843;28;20140;-82
2022/01/03 02:19:36;;;;;;;15.00;3.10;;;11.80;79.50;;;;;;4993818;28;20105;-82
2022/01/03 02:22:03;;;;;;;14.50;3.30;;;11.70;79.50;;;;;;4995432;28;20026;-82
2022/01/03 02:24:28;;;;;;;12.27;2.80;;;11.80;79.50;;;;;;4997100;28;20476;-80
2022/01/03 02:26:55;;;;;;;10.45;2.42;;;11.80;79.60;;;;;;4992853;28;20034;-81
2022/01/03 02:29:20;;;;;;;12.68;3.08;;;11.80;79.60;;;;;;4997361;28;20507;-81
2022/01/03 02:31:46;;;;;;;14.95;3.53;;;11.80;79.50;;;;;;4991392;28;20034;-81
2022/01/03 02:34:11;;;;;;;12.10;3.00;;;11.90;79.60;;;;;;4995397;28;20034;-81
2022/01/03 02:36:37;;;;;;;12.95;3.15;;;11.90;79.50;;;;;;4996730;28;20026;-81
2022/01/03 02:39:03;;;;;;;13.77;3.60;;;11.90;79.50;;;;;;4997991;28;20414;-81
2022/01/03 02:41:29;;;;;;;14.02;3.53;;;11.90;79.50;;;;;;4996936;28;20080;-81
2022/01/03 02:43:55;;;;;;;14.15;3.00;;;11.90;79.60;;;;;;4993284;28;20026;-81
2022/01/03 02:46:21;;;;;;;14.05;2.85;;;11.90;79.70;;;;;;4988995;28;20057;-81
2022/01/03 02:48:46;;;;;;;14.63;2.88;;;11.90;79.60;;;;;;4994949;28;20104;-82
2022/01/03 02:51:13;;;;;;;9.98;2.70;;;11.90;79.70;;;;;;4992272;28;20030;-80
2022/01/03 02:53:40;;;;;;;12.25;2.70;;;11.90;79.60;;;;;;4998238;28;20037;-81
2022/01/03 02:56:06;;;;;;;13.40;3.03;;;12.00;79.60;;;;;;4997671;28;20037;-81
2022/01/03 02:58:31;;;;;;;15.60;3.63;;;12.00;79.50;;;;;;4997143;28;20047;-81
2022/01/03 03:00:57;;;;;;;17.98;3.05;;;11.90;79.20;;;;;;4994381;28;20026;-82
2022/01/03 03:03:24;;;;;;;16.48;3.97;;;11.90;80.00;;;;;;5001447;28;20034;-81
2022/01/03 03:05:50;;;;;;;18.02;3.33;;;11.90;79.30;;;;;;4992631;28;20120;-81
2022/01/03 03:08:16;;;;;;;13.63;3.05;;;11.80;79.30;;;;;;4993775;28;20092;-81
2022/01/03 03:10:42;;;;;;;11.63;2.88;;;11.80;79.50;;;;;;4991359;28;20066;-81
2022/01/03 03:13:07;;;;;;;12.07;2.97;;;11.80;79.60;;;;;;4993047;28;20027;-81
2022/01/03 03:15:34;;;;;;;13.85;3.00;;;11.80;79.50;;;;;;4989151;28;20034;-83
2022/01/03 03:18:00;;;;;;;13.40;2.75;;;11.80;79.60;;;;;;4981212;28;20386;-82
2022/01/03 03:20:28;;;;;;;17.77;3.72;;;11.80;80.30;;;;;;4997980;28;20531;-81
2022/01/03 03:22:56;;;;;;;14.32;2.90;;;11.80;79.50;;;;;;4988707;28;20453;-81
2022/01/03 03:25:24;;;;;;;13.15;3.10;;;11.80;79.60;;;;;;4995404;28;20018;-81
2022/01/03 03:27:53;;;;;;;15.00;3.33;;;11.80;79.60;;;;;;4988919;28;20030;-81
2022/01/03 03:30:26;;;;;;;14.13;3.17;;;11.80;79.60;;;;;;4987036;28;20030;-82
2022/01/03 03:32:54;;;;;;;14.52;3.47;;;11.70;79.60;;;;;;4994104;28;20420;-81
2022/01/03 03:35:21;;;;;;;12.85;3.00;;;11.70;79.60;;;;;;4995154;28;20072;-81
2022/01/03 03:37:47;;;;;;;15.02;3.20;;;11.70;79.70;;;;;;4992860;28;20022;-81
2022/01/03 03:40:13;;;;;;;14.05;2.92;;;11.70;79.60;;;;;;4993484;28;20030;-81
2022/01/03 03:42:40;;;;;;;14.13;3.40;;;11.70;79.70;;;;;;4995720;28;20379;-81
2022/01/03 03:45:06;;;;;;;12.32;2.92;;;11.70;79.80;;;;;;4989400;28;20392;-81
2022/01/03 03:47:32;;;;;;;17.80;3.42;;;11.70;79.90;;;;;;4996908;28;20045;-81
2022/01/03 03:49:58;;;;;;;18.85;3.92;;;11.70;79.90;;;;;;4989662;28;20038;-81
2022/01/03 03:52:24;;;;;;;14.27;3.13;;;11.60;79.80;;;;;;4989360;28;20034;-81
2022/01/03 03:54:49;;;;;;;15.13;3.70;;;11.60;79.90;;;;;;4992985;28;20038;-81
2022/01/03 03:57:15;;;;;;;19.67;3.88;;;11.60;80.00;;;;;;4994188;28;20073;-81
2022/01/03 03:59:41;;;;;;;17.08;3.55;;;11.60;80.00;;;;;;5002131;28;20026;-81
2022/01/03 04:02:07;;;;;;;15.55;3.05;;;11.60;80.00;;;;;;4992645;28;20030;-81
2022/01/03 04:04:33;;;;;;;21.25;4.32;;;11.60;80.10;;;;;;4991200;28;20023;-81
2022/01/03 04:06:59;;;;;;;17.80;3.70;;;11.60;80.00;;;;;;5004433;28;20398;-82
2022/01/03 04:09:24;;;;;;;14.20;2.85;;;11.50;80.10;;;;;;4996749;28;20148;-81
2022/01/03 04:11:50;;;;;;;13.50;3.10;;;11.60;80.20;;;;;;4995999;28;20540;-81
2022/01/03 04:14:16;;;;;;;16.23;3.75;;;11.60;80.10;;;;;;4997521;28;20520;-82
2022/01/03 04:16:41;;;;;;;12.27;3.10;;;11.60;80.10;;;;;;4993718;28;20060;-81
2022/01/03 04:19:07;;;;;;;15.82;3.00;;;11.50;80.10;;;;;;4982557;28;20027;-81
2022/01/03 04:21:33;;;;;;;11.20;2.63;;;11.50;80.10;;;;;;5001207;28;20022;-81
2022/01/03 04:23:59;;;;;;;16.33;3.45;;;11.50;80.10;;;;;;5000216;28;20038;-81
2022/01/03 04:26:25;;;;;;;16.33;3.20;;;11.50;79.90;;;;;;4999487;28;20080;-81
2022/01/03 04:28:51;;;;;;;17.52;3.72;;;11.50;79.90;;;;;;5000239;28;20061;-81
2022/01/03 04:31:16;;;;;;;16.05;2.85;;;11.50;80.20;;;;;;4999098;28;20034;-82
2022/01/03 04:33:42;;;;;;;17.58;3.55;;;11.50;80.00;;;;;;5001111;28;20117;-82
2022/01/03 04:36:09;;;;;;;12.65;3.22;;;11.50;80.00;;;;;;4996375;28;20010;-82
2022/01/03 04:38:36;;;;;;;14.18;3.00;;;11.60;80.00;;;;;;5000940;28;20030;-79
2022/01/03 04:41:02;;;;;;;19.00;3.63;;;11.60;80.00;;;;;;5001315;28;20498;-79
2022/01/03 04:43:27;;;;;;;14.68;3.05;;;11.70;79.70;;;;;;4997613;28;20040;-79
2022/01/03 04:45:55;;;;;;;16.90;3.70;;;11.60;79.70;;;;;;4993556;28;20074;-79
2022/01/03 04:48:20;;;;;;;13.23;3.03;;;11.60;79.70;;;;;;4997532;28;20117;-79
2022/01/03 04:50:46;;;;;;;16.23;3.90;;;11.60;79.70;;;;;;4992350;28;20429;-80
2022/01/03 04:53:11;;;;;;;18.58;3.30;;;11.60;79.70;;;;;;5003483;28;20148;-80
2022/01/03 04:55:37;;;;;;;13.90;2.85;;;11.60;79.70;;;;;;5001948;28;20041;-80
2022/01/03 04:58:02;;;;;;;18.95;3.85;;;11.70;79.90;;;;;;4991385;28;20041;-80
2022/01/03 05:00:28;;;;;;;13.18;3.30;;;11.70;79.70;;;;;;4989080;28;20030;-80
2022/01/03 05:02:53;;;;;;;15.57;3.53;;;11.70;79.80;;;;;;5007698;28;20025;-80
2022/01/03 05:05:19;;;;;;;20.27;3.88;;;11.70;79.80;;;;;;4993991;28;20223;-80
2022/01/03 05:07:46;;;;;;;11.00;3.08;;;11.60;79.70;;;;;;5005775;28;20030;-80
2022/01/03 05:10:11;;;;;;;16.83;4.45;;;11.60;79.70;;;;;;4998932;28;20076;-80
2022/01/03 05:12:37;;;;;;;10.95;2.83;;;11.50;79.70;;;;;;4994668;28;20022;-81
2022/01/03 05:15:03;;;;;;;14.02;3.25;;;11.60;79.90;;;;;;4999050;28;20035;-80
2022/01/03 05:17:29;;;;;;;15.50;3.13;;;11.60;79.90;;;;;;4998256;28;20408;-80
2022/01/03 05:19:55;;;;;;;16.17;3.40;;;11.60;79.80;;;;;;4990142;28;20029;-80
2022/01/03 05:22:20;;;;;;;15.20;2.95;;;11.60;79.60;;;;;;4995626;28;20030;-80
2022/01/03 05:24:46;;;;;;;15.07;3.67;;;11.60;79.60;;;;;;4996773;28;20093;-80
2022/01/03 05:27:12;;;;;;;13.35;3.25;;;11.60;79.70;;;;;;5000171;28;20085;-80
2022/01/03 05:29:37;;;;;;;17.77;3.60;;;11.60;79.50;;;;;;4999390;28;20061;-81
2022/01/03 05:32:03;;;;;;;19.88;4.20;;;11.60;79.50;;;;;;5002287;28;20026;-81
2022/01/03 05:34:28;;;;;;;14.20;3.10;;;11.60;79.50;;;;;;4998830;28;20030;-82
2022/01/03 05:36:54;;;;;;;15.75;3.70;;;11.60;79.60;;;;;;5002379;28;20029;-81
2022/01/03 05:39:20;;;;;;;18.55;4.32;;;11.60;80.20;;;;;;4999969;28;20073;-81
2022/01/03 05:41:45;;;;;;;14.48;3.40;;;11.70;79.70;;;;;;4997122;28;20030;-81
2022/01/03 05:44:11;;;;;;;10.18;2.75;;;11.70;79.70;;;;;;4996264;28;20380;-81
2022/01/03 05:46:36;;;;;;;15.32;3.58;;;11.70;79.70;;;;;;4999947;28;20084;-80
2022/01/03 05:49:02;;;;;;;18.52;3.90;;;11.70;79.80;;;;;;4998062;28;20030;-81
2022/01/03 05:51:28;;;;;;;17.75;3.85;;;11.70;79.70;;;;;;4998887;28;20031;-81
2022/01/03 05:53:53;;;;;;;13.45;3.38;;;11.70;79.60;;;;;;4998107;28;20237;-81
2022/01/03 05:56:20;;;;;;;12.73;3.38;;;11.70;79.70;;;;;;4998035;28;20026;-81
2022/01/03 05:58:46;;;;;;;13.07;3.15;;;11.70;79.70;;;;;;4990837;28;20105;-81
2022/01/03 06:01:11;;;;;;;14.77;3.22;;;11.70;79.80;;;;;;4994815;28;20022;-81
2022/01/03 06:03:39;;;;;;;17.95;3.63;;;11.70;79.70;;;;;;4997888;28;20037;-81
2022/01/03 06:08:34;;;;;;;13.70;3.47;;;11.70;79.70;;;;;;4998417;28;20034;-81
2022/01/03 06:10:59;;;;;;;14.77;3.08;;;11.80;80.40;;;;;;4998437;28;20435;-80
2022/01/03 06:13:25;;;;;;;15.07;2.88;;;11.70;79.80;;;;;;4998609;28;20034;-80
2022/01/03 06:15:51;;;;;;;19.02;3.88;;;11.70;79.80;;;;;;4996296;28;20504;-82
2022/01/03 06:18:17;;;;;;;16.40;3.38;;;11.70;79.80;;;;;;4995592;28;20492;-80
2022/01/03 06:20:45;;;;;;;9.77;2.67;;;11.70;79.80;;;;;;4988613;28;20073;-81
2022/01/03 06:23:12;;;;;;;13.57;3.33;;;11.80;79.90;;;;;;5002052;28;20026;-80
2022/01/03 06:25:38;;;;;;;12.43;3.10;;;11.70;79.80;;;;;;4990680;28;20488;-80
2022/01/03 06:28:07;;;;;;;12.43;3.28;;;11.70;79.70;;;;;;5000430;28;20044;-80
2022/01/03 06:30:34;;;;;;;20.52;3.97;;;11.70;79.70;;;;;;4988271;28;20014;-80
2022/01/03 06:32:59;;;;;;;14.38;3.13;;;11.70;79.60;;;;;;4997164;28;20037;-80
2022/01/03 06:35:25;;;;;;;13.13;3.00;;;11.70;79.60;;;;;;4996289;28;20021;-81
2022/01/03 06:37:50;;;;;;;14.18;2.83;;;11.70;79.70;;;;;;5000440;28;20063;-81
2022/01/03 06:40:16;;;;;;;18.48;3.25;;;11.70;79.60;;;;;;4995172;28;20097;-80
2022/01/03 06:42:42;;;;;;;20.05;4.07;;;11.70;79.50;;;;;;4992137;28;20023;-81
2022/01/03 06:45:08;;;;;;;12.40;2.88;;;11.70;79.30;;;;;;4998539;28;20022;-80
2022/01/03 06:47:33;;;;;;;18.70;3.45;;;11.70;79.40;;;;;;4989849;28;20141;-80
2022/01/03 06:49:59;;;;;;;15.55;3.75;;;11.70;79.40;;;;;;4995177;28;20560;-80
2022/01/03 06:52:24;;;;;;;12.57;3.55;;;11.70;79.40;;;;;;5003807;28;20028;-80
2022/01/03 06:54:50;;;;;;;14.63;3.58;;;11.70;79.30;;;;;;4999129;28;20030;-79
2022/01/03 06:57:16;;;;;;;15.55;3.33;;;11.70;79.30;;;;;;4992040;28;20015;-80
2022/01/03 06:59:41;;;;;;;17.98;3.65;;;11.70;79.10;;;;;;4995414;28;20041;-80
2022/01/03 07:02:07;;;;;;;13.18;3.35;;;11.70;79.10;;;;;;4988272;28;20072;-80
2022/01/03 07:04:33;;;;;;;13.70;3.00;;;11.70;79.00;;;;;;4987199;28;20046;-80
2022/01/03 07:06:59;;;;;;;12.43;3.05;;;11.80;79.10;;;;;;4996130;28;20394;-81
2022/01/03 07:09:25;;;;;;;15.98;3.17;;;11.80;79.70;;;;;;4994685;28;20031;-81
2022/01/03 07:11:50;;;;;;;17.15;3.83;;;11.80;79.10;;;;;;4997687;28;20022;-81
2022/01/03 07:19:46;;;;;;;14.18;3.00;;;11.70;79.30;;;;;;4986553;28;20189;-81
2022/01/03 07:22:12;;;;;;;17.15;3.65;;;11.70;78.80;;;;;;4984519;28;20031;-81
2022/01/03 07:24:39;;;;;;;12.82;3.30;;;11.70;78.70;;;;;;4990763;28;20030;-81
2022/01/03 07:27:08;;;;;;;15.55;3.38;;;11.70;78.80;;;;;;4994886;28;20026;-81
2022/01/03 07:29:34;;;;;;;16.17;3.42;;;11.70;78.70;;;;;;4992935;28;20080;-81
2022/01/03 07:32:00;;;;;;;11.68;2.83;;;11.80;78.80;;;;;;4986150;28;20450;-81
2022/01/03 07:34:26;;;;;;;8.15;2.00;;;11.80;78.80;;;;;;4987291;28;20369;-81
2022/01/03 07:36:52;;;;;;;11.32;3.00;;;11.80;78.80;;;;;;4998076;28;20046;-81
2022/01/03 07:39:18;;;;;;;15.55;3.22;;;11.90;78.80;;;;;;4995924;28;20509;-81
2022/01/03 07:41:44;;;;;;;13.50;3.20;;;11.80;78.60;;;;;;4991769;28;20026;-81
2022/01/03 07:44:09;;;;;;;13.48;3.00;;;11.80;78.70;;;;;;4995991;28;20026;-80
2022/01/03 07:46:35;;;;;;;11.30;2.85;;;11.80;78.70;;;;;;4992105;28;20113;-80
2022/01/03 07:49:01;;;;;;;9.40;2.28;;;11.80;78.80;;;;;;4993652;28;20037;-81
2022/01/03 07:51:27;;;;;;;10.95;2.97;;;11.90;78.90;;;;;;4991564;28;20053;-81
2022/01/03 07:53:52;;;;;;;11.75;2.60;;;11.90;78.80;;;;;;4987831;28;20061;-81
2022/01/03 07:56:20;;;;;;;13.00;2.85;;;11.80;78.80;;;;;;4990160;28;20031;-80
2022/01/03 07:58:47;;;;;;;17.15;3.88;;;11.90;78.70;;;;;;4994267;28;20128;-80
2022/01/03 08:01:13;;;;;;;10.63;2.60;;;11.80;78.60;;;;;;4989109;28;20465;-80
2022/01/03 08:03:38;;;;;;;16.05;3.25;;;11.80;78.80;;;;;;4983635;28;20050;-81
2022/01/03 08:06:08;;;;;;;11.32;2.65;;;11.80;78.80;;;;;;4987610;28;20507;-81
2022/01/03 08:08:34;;;;;;;14.10;3.05;;;11.80;78.90;;;;;;4986122;28;20041;-81
2022/01/03 08:11:00;;;;;;;12.43;2.90;;;11.80;78.80;;;;;;4986314;28;20089;-81
2022/01/03 08:13:26;;;;;;;13.05;3.35;;;11.80;78.80;;;;;;4985356;28;20035;-81
2022/01/03 08:15:51;;;;;;;12.43;2.78;;;11.80;78.70;;;;;;4990127;28;20105;-81
2022/01/03 08:18:17;;;;;;;11.18;2.35;;;11.80;78.70;;;;;;4987298;28;20041;-83
2022/01/03 08:20:43;;;;;;;12.60;2.95;;;11.80;78.80;;;;;;4991519;28;20026;-81
2022/01/03 08:23:08;;;;;;;14.18;3.15;;;11.80;78.60;;;;;;4989643;28;20481;-83
2022/01/03 08:25:37;;;;;;;13.10;2.83;;;11.80;78.70;;;;;;4990108;28;20030;-81
2022/01/03 08:28:07;;;;;;;14.30;3.05;;;11.80;78.80;;;;;;5002249;28;20105;-80
2022/01/03 08:30:32;;;;;;;12.00;3.00;;;11.90;78.70;;;;;;4992242;28;20365;-81
2022/01/03 08:32:58;;;;;;;10.75;2.50;;;11.90;78.40;;;;;;5003411;28;20024;-81
2022/01/03 08:35:24;;;;;;;10.80;2.83;;;11.90;78.40;;;;;;4997473;28;20034;-83
2022/01/03 08:37:51;;;;;;;14.82;3.60;;;11.90;78.30;;;;;;4994779;28;20037;-82
2022/01/03 08:40:17;;;;;;;12.38;2.95;;;11.90;78.20;;;;;;4993612;28;20090;-83
2022/01/03 08:42:42;;;;;;;12.00;2.63;;;11.90;78.30;;;;;;4988149;28;20026;-82
2022/01/03 08:45:09;;;;;;;10.43;2.92;;;11.90;78.30;;;;;;4991470;28;20037;-81
2022/01/03 08:47:34;;;;;;;14.60;2.85;;;12.00;78.20;;;;;;4997728;28;20030;-80
2022/01/03 08:50:00;;;;;;;8.90;2.50;;;12.00;78.10;;;;;;5000296;28;20084;-80
2022/01/03 08:52:26;;;;;;;13.00;3.28;;;11.90;78.00;;;;;;4992546;28;20022;-79
2022/01/03 08:54:52;;;;;;;10.93;2.55;;;11.90;77.90;;;;;;4992458;28;20369;-80
2022/01/03 08:57:18;;;;;;;14.00;3.15;;;11.90;78.00;;;;;;5011510;28;20030;-79
2022/01/03 08:59:44;;;;;;;13.35;2.95;;;11.90;77.90;;;;;;4984585;28;20037;-79
2022/01/03 09:02:09;;;;;;;13.25;3.47;;;11.90;77.90;;;;;;4993445;28;20034;-79
2022/01/03 09:04:35;;;;;;;12.93;2.67;;;11.90;77.90;;;;;;4990271;28;20038;-80
2022/01/03 09:07:00;;;;;;;11.52;3.28;;;11.90;78.00;;;;;;4991330;28;20444;-80
2022/01/03 09:09:27;;;;;;;10.98;2.90;;;11.90;77.90;;;;;;4990768;28;20074;-79
2022/01/03 09:11:53;;;;;;;13.65;3.95;;;11.90;78.00;;;;;;4995792;28;20022;-79
2022/01/03 09:14:19;;;;;;;13.30;3.13;;;11.80;77.60;;;;;;4991984;28;20094;-84
2022/01/03 09:16:44;;;;;;;10.68;2.90;;;11.80;77.60;;;;;;4987915;28;20470;-82
2022/01/03 09:19:10;;;;;;;10.30;3.10;;;11.80;77.70;;;;;;4994802;28;20069;-82
2022/01/03 09:21:36;;;;;;;15.20;3.42;;;11.80;77.70;;;;;;4990344;28;20105;-82
2022/01/03 09:24:24;;;;;;;10.90;3.30;;;11.80;77.70;;;;;;4998091;28;20030;-81
2022/01/03 09:29:35;;;;;;;10.13;2.60;;;11.70;77.90;;;;;;4991234;28;20085;-82
2022/01/03 09:32:00;;;;;;;13.48;3.35;;;11.80;78.00;;;;;;5006239;28;20105;-82
2022/01/03 09:34:26;;;;;;;13.35;3.60;;;11.80;78.00;;;;;;4988774;28;20110;-82
2022/01/03 09:36:53;;;;;;;10.63;2.80;;;11.80;78.00;;;;;;5000750;28;20049;-81
2022/01/03 09:39:18;;;;;;;12.63;3.38;;;11.80;78.10;;;;;;4991507;28;20027;-81
2022/01/03 09:41:56;;;;;;;16.10;3.42;;;11.80;78.10;;;;;;5001555;28;20620;-81
2022/01/03 09:44:30;;;;;;;11.63;2.90;;;11.80;78.10;;;;;;4990652;28;20488;-82
2022/01/03 09:46:59;;;;;;;10.90;3.00;;;11.80;78.10;;;;;;4998290;28;20026;-82
2022/01/03 09:49:26;;;;;;;10.70;3.20;;;11.70;78.10;;;;;;4992259;28;20045;-82
2022/01/03 09:51:52;;;;;;;16.17;3.60;;;11.70;78.20;;;;;;4982138;28;20019;-82
2022/01/03 09:54:21;;;;;;;15.25;3.40;;;11.70;78.10;;;;;;4981019;28;20030;-81
2022/01/03 09:56:49;;;;;;;16.83;3.65;;;11.70;78.10;;;;;;4991008;28;20524;-81
2022/01/03 09:59:15;;;;;;;12.02;2.90;;;11.70;78.20;;;;;;4991980;28;20409;-82
2022/01/03 10:01:42;;;;;;;13.20;3.20;;;11.70;78.20;;;;;;4989760;28;20038;-81
2022/01/03 10:04:10;;;;;;;13.07;3.30;;;11.70;78.30;;;;;;4988915;28;20018;-81
2022/01/03 10:06:36;;;;;;;10.32;2.60;;;11.70;78.30;;;;;;4987450;28;20026;-81
2022/01/03 10:09:03;;;;;;;12.63;3.03;;;11.80;78.30;;;;;;4994782;28;20038;-81
2022/01/03 10:11:28;;;;;;;12.70;2.90;;;11.80;78.20;;;;;;4996363;28;20026;-81
2022/01/03 10:13:54;;;;;;;16.90;3.53;;;11.80;78.20;;;;;;4987384;28;20025;-81
2022/01/03 10:16:19;;;;;;;11.45;2.90;;;11.80;78.20;;;;;;4997986;28;20448;-81
2022/01/03 10:18:48;;;;;;;14.02;3.75;;;11.80;78.20;;;;;;4999084;28;20407;-81
2022/01/03 10:21:42;;;;;;;14.55;3.63;;;11.80;78.20;;;;;;4991077;28;20092;-81
2022/01/03 10:24:09;;;;;;;13.75;2.90;;;11.80;78.10;;;;;;4990742;28;20037;-81
2022/01/03 10:26:37;;;;;;;15.32;3.58;;;11.80;78.10;;;;;;4997407;28;20061;-81
2022/01/03 10:29:20;;;;;;;13.20;2.90;;;11.70;77.90;;;;;;4995941;28;20084;-81
2022/01/03 10:31:48;;;;;;;11.60;2.72;;;11.80;78.00;;;;;;5003254;28;20018;-86
2022/01/03 10:34:16;;;;;;;8.55;2.63;;;11.80;77.80;;;;;;4984007;28;20400;-88
2022/01/03 10:36:44;;;;;;;11.23;2.80;;;11.90;77.90;;;;;;4982265;28;20050;-83
2022/01/03 10:39:18;;;;;;;13.88;3.00;;;11.90;77.70;;;;;;4986485;28;20113;-86
2022/01/03 10:41:45;;;;;;;12.50;3.13;;;12.00;77.60;;;;;;4975394;28;20077;-87
2022/01/03 10:44:27;;;;;;;13.75;2.90;;;12.00;78.00;;;;;;4991441;28;20512;-88
2022/01/03 10:46:53;;;;;;;15.40;3.80;;;12.00;77.40;;;;;;4989147;28;20032;-86
2022/01/03 10:49:20;;;;;;;11.43;3.33;;;12.00;77.20;;;;;;4988888;28;20275;-89
2022/01/03 10:51:47;;;;;;;12.50;3.30;;;12.00;77.30;;;;;;5000549;28;20024;-85
2022/01/03 10:54:16;;;;;;;13.27;2.80;;;12.00;77.20;;;;;;4990187;28;20077;-83
2022/01/03 10:56:45;;;;;;;13.57;3.53;;;12.00;77.20;;;;;;4993008;28;20404;-83
2022/01/03 10:59:14;;;;;;;12.07;2.65;;;12.10;77.30;;;;;;5001227;28;20496;-84
2022/01/03 11:01:41;;;;;;;15.70;3.70;;;12.10;77.20;;;;;;4993283;28;20041;-84
2022/01/03 11:04:07;;;;;;;15.15;3.38;;;12.20;77.10;;;;;;4987705;28;20033;-85
2022/01/03 11:11:48;;;;;;;11.35;3.10;;;12.30;76.80;;;;;;4997686;28;20041;-89
2022/01/03 11:14:42;;;;;;;16.77;3.78;;;12.30;76.80;;;;;;4995868;28;20037;-83
2022/01/03 11:17:28;;;;;;;14.55;3.00;;;12.30;76.70;;;;;;4986161;28;20522;-83
2022/01/03 11:19:58;;;;;;;11.80;3.28;;;12.30;76.70;;;;;;4987926;28;20037;-82
2022/01/03 11:22:50;;;;;;;14.00;3.25;;;12.30;76.60;;;;;;4997817;28;20076;-82
2022/01/03 11:25:32;;;;;;;14.13;3.17;;;12.40;76.50;;;;;;4983064;28;20371;-82
2022/01/03 11:27:58;;;;;;;;;;;12.30;76.40;;;;;;4990596;28;20087;-81
2022/01/03 11:30:25;;;;;;;15.77;3.38;;;12.30;76.30;;;;;;4987703;28;19906;-82
2022/01/03 11:32:51;;;;;;;14.70;3.35;;;12.30;77.00;;;;;;4989065;28;20289;-82
2022/01/03 11:35:17;;;;;;;17.65;4.13;;;12.30;76.40;;;;;;4989079;28;20570;-82
2022/01/03 11:37:46;;;;;;;10.93;3.00;;;12.30;76.00;;;;;;4991649;28;20019;-83
2022/01/03 11:40:13;;;;;;;16.10;3.90;;;12.30;76.30;;;;;;4982454;28;20034;-84
2022/01/03 11:42:40;;;;;;;12.02;3.17;;;12.30;76.20;;;;;;4988324;28;20037;-84
2022/01/03 11:45:06;;;;;;;10.70;2.83;;;12.30;76.20;;;;;;4982800;28;20240;-84
2022/01/03 11:47:32;;;;;;;11.13;2.97;;;12.30;76.30;;;;;;4983293;28;20025;-84
2022/01/03 11:49:58;;;;;;;13.57;3.30;;;12.40;76.30;;;;;;4982253;28;20467;-84
2022/01/03 11:52:25;;;;;;;16.63;3.50;;;12.30;76.10;;;;;;4983462;28;20370;-84
2022/01/03 11:54:52;;;;;;;10.82;2.78;;;12.40;76.20;;;;;;4980818;28;20037;-84
2022/01/03 12:05:52;;;;;;;10.57;2.90;;;12.30;76.00;;;;;;4992375;28;19925;-90
2022/01/03 12:08:30;;;;;;;12.40;2.83;;;12.20;76.20;;;;;;4991182;28;20023;-88
2022/01/03 12:11:00;;;;;;;11.27;3.33;;;12.20;76.30;;;;;;4990585;28;20563;-89
2022/01/03 12:13:46;;;;;;;10.93;2.80;;;12.20;76.40;;;;;;4997836;28;20025;-91
2022/01/03 12:16:14;;;;;;;11.25;2.80;;;12.20;76.40;;;;;;4989292;28;20030;-87
2022/01/03 12:18:58;;;;;;;13.25;2.70;;;12.20;76.50;;;;;;4988731;28;20046;-85
2022/01/03 12:21:48;;;;;;;13.93;3.13;;;12.20;76.40;;;;;;4998247;28;20076;-85
2022/01/03 12:24:26;;;;;;;13.98;3.58;;;12.30;76.50;;;;;;4981231;28;20513;-85
2022/01/03 12:27:13;;;;;;;12.05;2.65;;;12.20;76.40;;;;;;4984992;28;20038;-82
2022/01/03 12:29:53;;;;;;;10.02;2.72;;;12.30;76.50;;;;;;4991715;28;20041;-83
2022/01/03 12:32:29;;;;;;;10.02;2.97;;;12.30;76.60;;;;;;4991310;28;20037;-88
2022/01/03 12:35:10;;;;;;;13.55;3.47;;;12.30;76.50;;;;;;4992256;28;20033;-87
2022/01/03 12:37:37;;;;;;;12.38;2.92;;;12.30;76.40;;;;;;5002060;28;20061;-87
2022/01/03 12:40:06;;;;;;;11.02;3.20;;;12.30;76.40;;;;;;4992299;28;20034;-87
2022/01/03 12:45:25;;;;;;;10.43;2.72;;;12.40;76.30;;;;;;4994326;28;20049;-90
2022/01/03 12:47:52;;;;;;;10.38;2.42;;;12.40;76.30;;;;;;5007676;28;20535;-90
2022/01/03 12:50:21;;;;;;;8.95;2.53;;;12.40;76.30;;;;;;4999689;28;20088;-92
2022/01/03 12:52:48;;;;;;;10.00;2.97;;;12.40;76.30;;;;;;4989023;28;20470;-88
2022/01/03 12:55:36;;;;;;;12.68;3.17;;;12.40;76.20;;;;;;4988855;28;20030;-88
2022/01/03 12:58:03;;;;;;;13.20;3.22;;;12.40;76.00;;;;;;4985697;28;20045;-88
2022/01/03 13:00:44;;;;;;;15.55;3.10;;;12.40;76.10;;;;;;4988709;28;20114;-89
2022/01/03 13:03:47;;;;;;;12.73;2.67;;;12.40;76.20;;;;;;4990186;28;20029;-87
2022/01/03 13:06:24;;;;;;;9.50;2.80;;;12.30;76.10;;;;;;5009819;28;20035;-88
2022/01/03 13:08:56;;;;;;;11.02;2.40;;;12.30;76.10;;;;;;4989786;28;20041;-88
2022/01/03 13:11:43;;;;;;;13.37;2.80;;;12.20;75.70;;;;;;4990585;28;20061;-87
2022/01/03 13:14:20;;;;;;;11.38;2.50;;;12.30;75.80;;;;;;4985100;28;20034;-87
2022/01/03 13:16:51;;;;;;;10.35;2.58;;;12.20;75.40;;;;;;4986735;28;20034;-88